Time;durP1;ratioP1;P1;durP2;ratioP2;P2;SDS_P1;SDS_P2;PMS_P1;PMS_P2;Temp;Humidity;BMP_temperature;BMP_pressure;BME280_temperature;BME280_humidity;BME280_pressure;Samples;Min_cycle;Max_cycle;Signal;HPM_P1;HPM_P2
2023/06/12 00:01:36;;;;;;;53.83;4.53;;;;;;;24.23;48.13;99690.59;7309557;19;129500;-38
2023/06/12 00:04:02;;;;;;;42.15;4.00;;;;;;;24.22;48.78;99695.03;7312632;19;129279;-39
2023/06/12 00:06:28;;;;;;;16.67;3.03;;;;;;;24.21;49.04;99693.38;7308664;19;129738;-39
2023/06/12 00:08:53;;;;;;;19.00;3.03;;;;;;;24.21;49.17;99689.94;7317423;19;129267;-37
2023/06/12 00:11:20;;;;;;;82.67;5.77;;;;;;;24.22;48.72;99689.78;7314905;19;129089;-39
2023/06/12 00:13:47;;;;;;;32.43;3.23;;;;;;;24.11;49.19;99669.00;7319331;19;128828;-39
2023/06/12 00:16:12;;;;;;;31.42;3.30;;;;;;;24.20;49.24;99683.00;7315570;19;130474;-39
2023/06/12 00:18:38;;;;;;;40.53;3.93;;;;;;;24.22;49.17;99692.41;7317165;19;129261;-38
2023/06/12 00:21:05;;;;;;;50.75;4.15;;;;;;;24.13;49.67;99682.81;7316435;19;130110;-38
2023/06/12 00:23:30;;;;;;;38.03;3.78;;;;;;;24.20;49.48;99683.84;7318472;19;128998;-38
2023/06/12 00:25:56;;;;;;;63.73;4.93;;;;;;;24.21;49.32;99684.69;7313115;19;130147;-38
2023/06/12 00:28:21;;;;;;;33.37;3.50;;;;;;;24.21;49.48;99688.13;7317696;19;129407;-39
2023/06/12 00:30:47;;;;;;;35.63;3.47;;;;;;;24.22;49.18;99681.06;7317523;19;128827;-39
2023/06/12 00:33:12;;;;;;;47.67;4.33;;;;;;;24.13;49.65;99667.03;7317467;19;128794;-38
2023/06/12 00:35:37;;;;;;;34.03;3.47;;;;;;;24.21;49.64;99685.47;7316409;19;129522;-38
2023/06/12 00:38:03;;;;;;;30.97;3.33;;;;;;;24.19;49.50;99678.75;7317320;19;129558;-39
2023/06/12 00:40:28;;;;;;;79.43;6.15;;;;;;;24.17;49.14;99678.91;7317590;19;129888;-38
2023/06/12 00:42:54;;;;;;;32.35;3.75;;;;;;;24.18;49.19;99685.81;7317692;19;129756;-39
2023/06/12 00:45:21;;;;;;;36.13;3.60;;;;;;;24.19;49.67;99687.47;7316723;19;129221;-38
2023/06/12 00:47:52;;;;;;;60.72;5.07;;;;;;;24.08;50.02;99669.31;7315698;19;129648;-38
2023/06/12 00:50:18;;;;;;;80.13;5.47;;;;;;;24.18;49.37;99685.00;7317716;19;129363;-39
2023/06/12 00:52:47;;;;;;;28.70;3.22;;;;;;;24.20;49.88;99690.91;7317387;19;129172;-38
2023/06/12 00:55:14;;;;;;;29.35;3.28;;;;;;;24.18;49.53;99685.81;7317726;19;131807;-38
2023/06/12 00:57:44;;;;;;;47.33;4.22;;;;;;;24.18;49.66;99685.00;7317120;19;130924;-39
2023/06/12 01:00:12;;;;;;;62.63;4.70;;;;;;;24.15;50.04;99686.13;7316707;19;128845;-39
2023/06/12 01:02:42;;;;;;;44.40;4.10;;;;;;;24.17;50.15;99689.41;7313008;19;128845;-39
2023/06/12 01:05:32;;;;;;;31.98;3.30;;;;;;;24.18;50.06;99683.16;7317275;19;130072;-39
2023/06/12 01:08:16;;;;;;;44.80;3.63;;;;;;;24.16;49.56;99687.75;7316455;19;130372;-38
2023/06/12 01:11:08;;;;;;;26.95;3.05;;;;;;;24.17;50.37;99684.16;7316638;19;128688;-38
2023/06/12 01:13:34;;;;;;;14.65;2.40;;;;;;;24.12;50.04;99673.28;7317258;19;129409;-38
2023/06/12 01:16:00;;;;;;;34.55;3.50;;;;;;;24.16;50.03;99682.50;7314650;19;129141;-37
2023/06/12 01:18:26;;;;;;;56.60;4.57;;;;;;;24.15;49.75;99680.03;7315009;19;129383;-38
2023/06/12 01:20:55;;;;;;;34.53;3.55;;;;;;;24.05;49.80;99658.28;7314419;19;129195;-38
2023/06/12 01:23:26;;;;;;;44.17;4.32;;;;;;;24.14;49.63;99673.97;7316065;19;129502;-39
2023/06/12 01:25:58;;;;;;;26.75;3.10;;;;;;;24.11;50.04;99679.50;7314923;19;129139;-38
2023/06/12 01:28:43;;;;;;;51.58;4.10;;;;;;;24.03;49.67;99661.06;7315969;19;130527;-39
2023/06/12 01:31:25;;;;;;;36.35;3.25;;;;;;;24.07;50.11;99669.47;7316111;19;129675;-39
2023/06/12 01:34:02;;;;;;;56.58;4.95;;;;;;;24.07;49.91;99670.31;7315787;19;128806;-38
2023/06/12 01:36:32;;;;;;;56.50;4.30;;;;;;;24.13;49.95;99682.00;7313378;19;130823;-39
2023/06/12 01:39:00;;;;;;;77.40;5.25;;;;;;;24.10;49.80;99677.88;7316098;19;130332;-38
2023/06/12 01:41:27;;;;;;;29.25;3.20;;;;;;;24.13;49.94;99682.81;7315036;19;129087;-39
2023/06/12 01:43:53;;;;;;;29.02;3.63;;;;;;;24.13;49.48;99676.75;7316077;19;129084;-37
2023/06/12 01:46:18;;;;;;;82.50;5.70;;;;;;;24.12;49.54;99673.28;7311865;19;128986;-40
2023/06/12 01:48:44;;;;;;;42.53;3.83;;;;;;;24.13;49.74;99688.06;7314272;19;129265;-39
2023/06/12 01:51:09;;;;;;;35.27;3.20;;;;;;;24.13;49.72;99682.81;7315128;19;131120;-39
2023/06/12 01:53:35;;;;;;;28.83;2.97;;;;;;;24.11;50.14;99684.75;7315856;19;129784;-38
2023/06/12 01:56:00;;;;;;;54.77;4.17;;;;;;;24.07;49.82;99670.31;7313487;19;129145;-39
2023/06/12 01:58:27;;;;;;;25.90;3.10;;;;;;;24.11;49.46;99684.75;7316675;19;130433;-38
2023/06/12 02:00:53;;;;;;;48.45;3.92;;;;;;;24.11;49.31;99687.38;7314030;19;129132;-40
2023/06/12 02:03:22;;;;;;;68.88;5.50;;;;;;;24.11;50.30;99684.75;7315502;19;129402;-39
2023/06/12 02:05:48;;;;;;;28.13;3.00;;;;;;;24.11;50.13;99684.75;7313400;19;129630;-38
2023/06/12 02:08:13;;;;;;;36.93;3.37;;;;;;;24.11;49.76;99682.13;7315856;19;129821;-38
2023/06/12 02:10:38;;;;;;;30.73;3.42;;;;;;;24.04;49.73;99667.16;7314336;19;129095;-38
2023/06/12 02:13:04;;;;;;;30.77;3.47;;;;;;;24.12;49.76;99669.84;7314875;19;129573;-39
2023/06/12 02:15:29;;;;;;;52.95;4.45;;;;;;;24.09;49.89;99670.97;7312912;19;130093;-39
2023/06/12 02:17:55;;;;;;;38.87;3.73;;;;;;;24.05;49.24;99666.16;7314362;19;129719;-37
2023/06/12 02:20:20;;;;;;;83.83;5.97;;;;;;;24.13;50.13;99676.75;7313996;19;129250;-42
2023/06/12 02:22:45;;;;;;;43.17;4.03;;;;;;;24.09;49.84;99676.22;7311961;19;128803;-38
2023/06/12 02:25:11;;;;;;;49.83;4.03;;;;;;;24.08;50.01;99674.56;7313824;19;129529;-38
2023/06/12 02:27:36;;;;;;;31.73;3.42;;;;;;;24.09;49.66;99689.38;7315067;19;129326;-39
2023/06/12 02:30:02;;;;;;;29.80;3.37;;;;;;;24.09;49.56;99684.09;7315133;19;129026;-39
2023/06/12 02:32:27;;;;;;;45.47;3.93;;;;;;;24.08;50.01;99682.44;7313570;19;129098;-39
2023/06/12 02:34:54;;;;;;;35.60;3.40;;;;;;;24.06;50.24;99687.06;7314363;19;129219;-39
2023/06/12 02:37:19;;;;;;;;;;;;;;;24.15;50.45;99687.91;7315354;19;129578;-40
2023/06/12 02:39:45;;;;;;;46.40;4.03;;;;;;;24.00;49.32;99671.88;7315256;19;129313;-38
2023/06/12 02:42:10;;;;;;;58.45;4.72;;;;;;;24.08;49.44;99692.94;7311365;19;129996;-38
2023/06/12 02:44:36;;;;;;;48.77;4.37;;;;;;;24.09;49.64;99689.38;7314100;19;129495;-39
2023/06/12 02:47:01;;;;;;;36.67;3.70;;;;;;;24.08;49.30;99700.81;7314092;19;131190;-39
2023/06/12 02:49:29;;;;;;;25.40;3.15;;;;;;;24.09;49.90;99706.91;7315008;19;129005;-38
2023/06/12 02:51:54;;;;;;;48.45;4.03;;;;;;;24.05;49.52;99703.78;7312676;19;129365;-39
2023/06/12 02:54:22;;;;;;;34.93;3.63;;;;;;;24.09;49.98;99712.16;7314383;19;129389;-38
2023/06/12 02:56:48;;;;;;;31.60;3.75;;;;;;;24.07;49.67;99712.31;7313567;19;129309;-39
2023/06/12 02:59:18;;;;;;;34.63;3.53;;;;;;;23.95;49.83;99684.63;7313739;19;129409;-38
2023/06/12 03:01:44;;;;;;;47.40;4.30;;;;;;;24.07;49.77;99707.06;7311055;19;129124;-39
2023/06/12 03:04:15;;;;;;;44.57;4.20;;;;;;;24.07;49.77;99707.06;7313440;19;129139;-39
2023/06/12 03:06:43;;;;;;;48.33;4.07;;;;;;;24.05;50.08;99703.78;7307856;19;132710;-40
2023/06/12 03:09:09;;;;;;;29.42;3.58;;;;;;;24.05;49.86;99709.03;7312069;19;128895;-38
2023/06/12 03:11:38;;;;;;;61.63;4.47;;;;;;;24.07;50.14;99714.13;7311926;19;129174;-39
2023/06/12 03:14:07;;;;;;;78.45;5.90;;;;;;;24.04;49.61;99715.25;7312439;19;129465;-39
2023/06/12 03:16:33;;;;;;;34.83;3.58;;;;;;;24.06;49.99;99713.31;7310680;19;129841;-40
2023/06/12 03:18:59;;;;;;;45.47;4.13;;;;;;;24.05;49.56;99719.53;7313036;19;128874;-39
2023/06/12 03:21:24;;;;;;;37.10;3.55;;;;;;;24.06;50.20;99718.56;7311798;19;129179;-38
2023/06/12 03:23:51;;;;;;;45.07;4.03;;;;;;;24.04;49.64;99725.78;7311756;19;129528;-39
2023/06/12 03:26:16;;;;;;;19.00;2.78;;;;;;;24.04;49.37;99720.50;7310883;19;129442;-39
2023/06/12 03:28:43;;;;;;;37.97;3.37;;;;;;;24.04;49.60;99717.88;7312778;19;128870;-39
2023/06/12 03:31:08;;;;;;;45.60;4.15;;;;;;;24.05;49.80;99716.91;7311056;19;128905;-38
2023/06/12 03:33:34;;;;;;;48.13;4.07;;;;;;;24.06;49.60;99723.00;7308597;19;129905;-39
2023/06/12 03:35:59;;;;;;;31.42;3.50;;;;;;;24.05;49.65;99722.16;7311094;19;129641;-37
2023/06/12 03:38:24;;;;;;;38.30;3.70;;;;;;;24.03;50.25;99718.03;7312638;19;128975;-38
2023/06/12 03:40:50;;;;;;;59.42;4.97;;;;;;;24.03;49.57;99724.09;7311488;19;128968;-39
2023/06/12 03:43:15;;;;;;;54.53;4.67;;;;;;;24.00;50.06;99721.78;7311127;19;130153;-38
2023/06/12 03:45:40;;;;;;;28.40;3.03;;;;;;;24.03;50.22;99724.09;7310174;19;130481;-38
2023/06/12 03:48:06;;;;;;;28.10;2.95;;;;;;;23.96;49.51;99716.97;7312984;19;129527;-38
2023/06/12 03:50:31;;;;;;;92.97;6.80;;;;;;;24.02;49.95;99721.63;7310543;19;129464;-38
2023/06/12 03:52:56;;;;;;;41.58;4.00;;;;;;;24.04;50.13;99722.31;7312422;19;129047;-37
2023/06/12 03:55:23;;;;;;;32.20;3.20;;;;;;;24.02;50.10;99722.47;7310754;19;129332;-38
2023/06/12 03:57:49;;;;;;;;;;;;;;;24.11;50.44;99724.16;7312342;19;128903;-38
2023/06/12 04:00:14;;;;;;;74.70;5.55;;;;;;;24.04;49.54;99719.69;7311220;19;129146;-38
2023/06/12 04:02:40;;;;;;;38.10;3.57;;;;;;;24.03;50.18;99716.22;7308487;19;129309;-38
2023/06/12 04:05:08;;;;;;;31.35;3.40;;;;;;;23.95;49.76;99707.41;7310456;19;131070;-38
2023/06/12 04:07:36;;;;;;;32.05;3.42;;;;;;;24.00;49.57;99711.28;7313035;19;129300;-38
2023/06/12 04:10:02;;;;;;;62.83;4.93;;;;;;;23.99;49.99;99717.53;7311278;19;129337;-39
2023/06/12 04:12:28;;;;;;;41.60;4.10;;;;;;;24.01;50.28;99715.56;7310491;19;130548;-38
2023/06/12 04:14:53;;;;;;;20.17;3.20;;;;;;;24.00;49.75;99715.69;7309989;19;129246;-39
2023/06/12 04:17:18;;;;;;;34.55;3.42;;;;;;;24.00;49.93;99727.03;7311294;19;129156;-38
2023/06/12 04:19:45;;;;;;;58.10;4.63;;;;;;;24.00;50.08;99723.56;7310930;19;129049;-40
2023/06/12 04:22:12;;;;;;;44.08;4.28;;;;;;;24.01;50.29;99725.25;7308429;19;130738;-38
2023/06/12 04:24:42;;;;;;;25.98;3.20;;;;;;;24.01;50.23;99725.25;7308825;19;130043;-39
2023/06/12 04:27:09;;;;;;;30.30;3.55;;;;;;;24.03;50.39;99728.56;7310633;19;129106;-40
2023/06/12 04:29:37;;;;;;;73.95;5.38;;;;;;;24.00;50.21;99728.81;7310301;19;129112;-38
2023/06/12 04:32:06;;;;;;;45.20;4.40;;;;;;;23.99;50.14;99728.03;7310613;19;130223;-39
2023/06/12 04:34:39;;;;;;;126.25;8.35;;;;;;;24.00;49.63;99739.34;7308198;19;129336;-38
2023/06/12 04:37:08;;;;;;;81.13;5.72;;;;;;;24.00;50.17;99729.66;7307976;19;129172;-40
2023/06/12 04:39:38;;;;;;;55.20;4.60;;;;;;;23.99;49.53;99732.44;7308318;19;129644;-40
2023/06/12 04:42:05;;;;;;;41.55;4.10;;;;;;;23.97;50.12;99737.81;7307476;19;129394;-39
2023/06/12 04:44:35;;;;;;;49.35;4.45;;;;;;;23.96;49.49;99738.81;7307395;19;130324;-39
2023/06/12 04:47:14;;;;;;;30.40;3.97;;;;;;;23.96;50.03;99738.81;7312225;19;128698;-39
2023/06/12 04:49:41;;;;;;;37.67;4.68;;;;;;;23.95;49.92;99741.56;7306791;19;130360;-40
2023/06/12 04:52:07;;;;;;;29.70;4.00;;;;;;;23.96;49.53;99741.44;7310186;19;130221;-39
2023/06/12 04:54:35;;;;;;;61.97;5.57;;;;;;;23.96;49.36;99736.19;7306684;19;130181;-39
2023/06/12 04:57:07;;;;;;;34.95;4.10;;;;;;;23.95;49.94;99733.69;7317913;19;129272;-39
2023/06/12 04:59:38;;;;;;;15.05;2.80;;;;;;;23.97;49.38;99742.25;7312212;19;131125;-38
2023/06/12 05:02:06;;;;;;;28.73;3.72;;;;;;;23.89;49.64;99726.41;7315383;19;129116;-39
2023/06/12 05:04:32;;;;;;;53.60;4.63;;;;;;;23.98;49.88;99736.88;7315519;19;130361;-39
2023/06/12 05:06:59;;;;;;;46.42;4.75;;;;;;;23.93;49.80;99739.09;7317513;19;128892;-40
2023/06/12 05:09:24;;;;;;;;;;;;;;;23.89;50.04;99727.25;7312461;19;129265;-38
2023/06/12 05:11:50;;;;;;;33.15;3.50;;;;;;;23.91;48.75;99741.06;7315404;19;130242;-37
2023/06/12 05:14:15;;;;;;;67.35;5.30;;;;;;;23.83;48.90;99740.97;7311468;19;129132;-38
2023/06/12 05:16:41;;;;;;;106.87;7.53;;;;;;;23.67;49.38;99732.94;7314103;19;129644;-36
2023/06/12 05:19:09;;;;;;;87.90;6.10;;;;;;;23.74;48.74;99741.88;7311069;19;129589;-38
2023/06/12 05:21:34;;;;;;;37.45;3.72;;;;;;;23.80;49.50;99743.91;7301253;19;131173;-39
2023/06/12 05:23:59;;;;;;;49.87;4.87;;;;;;;23.87;48.73;99738.88;7309680;19;130150;-40
2023/06/12 05:26:25;;;;;;;38.63;3.97;;;;;;;23.91;50.00;99745.47;7313778;19;128855;-38
2023/06/12 05:28:50;;;;;;;31.98;4.30;;;;;;;23.93;49.67;99746.16;7317839;19;129285;-38
2023/06/12 05:31:16;;;;;;;40.23;4.20;;;;;;;23.91;49.10;99746.31;7315917;19;129052;-40
2023/06/12 05:33:41;;;;;;;65.63;5.53;;;;;;;23.89;49.48;99748.25;7312262;19;129672;-39
2023/06/12 05:36:08;;;;;;;29.20;3.47;;;;;;;23.83;49.47;99740.16;7314755;19;129421;-38
2023/06/12 05:38:33;;;;;;;35.58;3.65;;;;;;;23.92;50.00;99747.13;7311653;19;132306;-37
2023/06/12 05:40:59;;;;;;;61.40;5.23;;;;;;;23.91;49.90;99751.56;7310376;19;130408;-39
2023/06/12 05:43:24;;;;;;;134.00;9.05;;;;;;;23.91;49.18;99746.31;7313912;19;129390;-39
2023/06/12 05:45:50;;;;;;;46.73;4.57;;;;;;;23.89;49.11;99747.41;7315039;19;130063;-39
2023/06/12 05:48:15;;;;;;;48.77;4.87;;;;;;;23.89;49.58;99748.25;7314049;19;129181;-37
2023/06/12 05:50:40;;;;;;;89.20;6.15;;;;;;;23.78;49.30;99727.50;7308999;19;129165;-40
2023/06/12 05:53:08;;;;;;;42.00;3.83;;;;;;;23.88;49.58;99738.72;7314530;19;130271;-39
2023/06/12 05:55:33;;;;;;;32.80;3.47;;;;;;;23.88;50.20;99738.72;7310522;19;130159;-38
2023/06/12 05:57:59;;;;;;;29.97;3.70;;;;;;;23.86;49.90;99742.47;7314183;19;128954;-38
2023/06/12 06:00:24;;;;;;;82.13;6.63;;;;;;;23.87;50.10;99744.94;7314170;19;129322;-40
2023/06/12 06:02:50;;;;;;;34.67;4.13;;;;;;;23.86;49.54;99743.31;7312194;19;129270;-38
2023/06/12 06:05:16;;;;;;;36.85;3.90;;;;;;;23.89;49.60;99744.78;7311017;19;130325;-37
2023/06/12 06:07:42;;;;;;;31.07;3.80;;;;;;;23.84;50.33;99745.25;7315061;19;129040;-37
2023/06/12 06:10:08;;;;;;;52.65;4.45;;;;;;;23.85;49.91;99744.28;7309550;19;130389;-39
2023/06/12 06:12:33;;;;;;;39.43;3.97;;;;;;;23.84;50.30;99744.41;7314828;19;130618;-39
2023/06/12 06:14:59;;;;;;;41.53;3.73;;;;;;;23.86;50.13;99743.31;7310846;19;129349;-37
2023/06/12 06:17:25;;;;;;;54.00;4.63;;;;;;;23.77;49.43;99733.69;7314109;19;130088;-38
2023/06/12 06:19:50;;;;;;;62.28;4.93;;;;;;;23.85;49.59;99741.66;7309884;19;130780;-38
2023/06/12 06:22:18;;;;;;;37.00;3.77;;;;;;;23.88;50.42;99754.47;7312826;19;130713;-39
2023/06/12 06:24:44;;;;;;;104.55;7.57;;;;;;;23.86;50.32;99748.56;7307052;19;130395;-38
2023/06/12 06:27:10;;;;;;;38.57;3.93;;;;;;;23.86;50.32;99743.31;7313280;19;129349;-40
2023/06/12 06:29:36;;;;;;;58.40;4.80;;;;;;;23.85;49.46;99749.53;7311780;19;129530;-38
2023/06/12 06:32:01;;;;;;;48.77;4.57;;;;;;;23.86;50.33;99752.97;7312655;19;129512;-37
2023/06/12 06:34:27;;;;;;;49.30;4.47;;;;;;;23.85;50.19;99752.16;7311572;19;129245;-39
2023/06/12 06:36:53;;;;;;;27.00;3.58;;;;;;;23.86;49.78;99747.72;7314423;19;129015;-37
2023/06/12 06:39:19;;;;;;;59.67;4.83;;;;;;;23.87;50.41;99763.34;7312801;19;129353;-41
2023/06/12 06:41:44;;;;;;;43.37;4.13;;;;;;;23.88;50.33;99757.09;7310758;19;130240;-40
2023/06/12 06:44:09;;;;;;;13.90;3.47;;;;;;;23.87;49.88;99760.72;7313814;19;129363;-38
2023/06/12 06:46:35;;;;;;;56.17;4.82;;;;;;;23.87;50.25;99754.63;7308434;19;129118;-40
2023/06/12 06:49:00;;;;;;;44.05;4.00;;;;;;;23.86;50.56;99764.31;7315192;19;129539;-39
2023/06/12 06:51:25;;;;;;;13.23;2.87;;;;;;;23.88;50.64;99754.47;7313995;19;129618;-40
2023/06/12 06:53:51;;;;;;;46.80;4.33;;;;;;;23.90;49.60;99752.53;7311528;19;130821;-38
2023/06/12 06:56:16;;;;;;;48.77;3.90;;;;;;;23.90;50.39;99749.91;7311461;19;129346;-39
2023/06/12 06:58:42;;;;;;;36.10;3.60;;;;;;;23.82;50.42;99747.19;7313481;19;130870;-39
2023/06/12 07:01:08;;;;;;;43.50;4.20;;;;;;;23.92;50.87;99753.19;7313549;19;129512;-40
2023/06/12 07:03:33;;;;;;;27.23;3.80;;;;;;;23.96;50.07;99764.22;7310445;19;129389;-38
2023/06/12 07:05:58;;;;;;;53.10;4.53;;;;;;;23.93;50.29;99760.09;7312376;19;128890;-39
2023/06/12 07:08:24;;;;;;;33.42;3.60;;;;;;;23.92;50.56;99755.00;7312870;19;129956;-40
2023/06/12 07:10:50;;;;;;;12.63;2.83;;;;;;;23.93;50.30;99754.84;7311080;19;132022;-39
2023/06/12 07:13:15;;;;;;;47.97;3.97;;;;;;;23.87;49.30;99747.56;7311989;19;129373;-38
2023/06/12 07:15:41;;;;;;;66.30;5.00;;;;;;;23.97;50.38;99760.63;7311438;19;128826;-39
2023/06/12 07:18:06;;;;;;;33.03;3.30;;;;;;;23.97;50.34;99761.47;7311936;19;129511;-38
2023/06/12 07:20:31;;;;;;;79.13;5.93;;;;;;;23.96;50.83;99757.19;7312422;19;130358;-39
2023/06/12 07:22:57;;;;;;;30.43;3.37;;;;;;;23.97;51.22;99756.19;7310831;19;131065;-39
2023/06/12 07:25:22;;;;;;;54.78;4.60;;;;;;;23.92;51.11;99755.81;7310564;19;128861;-40
2023/06/12 07:27:47;;;;;;;26.80;3.10;;;;;;;23.93;50.13;99760.09;7313230;19;129546;-38
2023/06/12 07:30:13;;;;;;;55.10;4.75;;;;;;;23.94;51.40;99761.75;7312359;19;129328;-40
2023/06/12 07:32:38;;;;;;;22.03;3.10;;;;;;;23.94;51.30;99755.69;7312149;19;128899;-38
2023/06/12 07:35:05;;;;;;;53.47;4.60;;;;;;;23.96;51.15;99761.59;7312573;19;129134;-39
2023/06/12 07:37:34;;;;;;;27.85;3.20;;;;;;;23.96;50.32;99765.06;7312774;19;129282;-37
2023/06/12 07:40:00;;;;;;;45.75;4.03;;;;;;;23.92;50.77;99761.09;7312372;19;129902;-38
2023/06/12 07:42:25;;;;;;;36.00;3.67;;;;;;;23.96;51.00;99754.56;7310273;19;129016;-40
2023/06/12 07:44:51;;;;;;;54.65;4.30;;;;;;;23.95;50.54;99752.06;7312925;19;128821;-38
2023/06/12 07:47:16;;;;;;;32.57;3.47;;;;;;;23.95;50.96;99752.91;7312966;19;129444;-39
2023/06/12 07:49:41;;;;;;;33.88;3.38;;;;;;;23.96;51.41;99754.56;7313268;19;129649;-37
2023/06/12 07:52:07;;;;;;;41.83;3.70;;;;;;;23.94;51.08;99767.00;7310698;19;129688;-38
2023/06/12 07:54:32;;;;;;;40.80;3.73;;;;;;;23.94;50.59;99764.38;7312009;19;129435;-38
2023/06/12 07:56:57;;;;;;;117.38;7.38;;;;;;;23.98;51.45;99763.13;7311160;19;129352;-37
2023/06/12 07:59:23;;;;;;;36.37;3.80;;;;;;;23.98;51.18;99757.88;7312383;19;131108;-38
2023/06/12 08:01:49;;;;;;;56.73;4.20;;;;;;;23.88;51.46;99743.97;7310309;19;129317;-39
2023/06/12 08:04:14;;;;;;;23.23;3.10;;;;;;;23.98;52.00;99765.75;7311849;19;130075;-39
2023/06/12 08:06:40;;;;;;;50.25;4.93;;;;;;;23.97;51.32;99756.19;7308541;19;129365;-39
2023/06/12 08:09:08;;;;;;;46.33;4.05;;;;;;;23.93;50.76;99754.84;7308468;19;131049;-38
2023/06/12 08:11:34;;;;;;;61.72;4.78;;;;;;;23.97;51.17;99769.34;7311102;19;129584;-37
2023/06/12 08:13:59;;;;;;;68.07;5.00;;;;;;;23.95;51.45;99758.16;7310523;19;129405;-39
2023/06/12 08:16:25;;;;;;;28.55;3.05;;;;;;;23.96;50.82;99749.31;7309461;19;129805;-39
2023/06/12 08:18:51;;;;;;;84.63;6.13;;;;;;;23.95;50.86;99752.06;7309930;19;129740;-39
2023/06/12 08:21:16;;;;;;;62.97;4.70;;;;;;;23.97;49.99;99758.84;7311345;19;129875;-38
2023/06/12 08:23:42;;;;;;;25.70;3.23;;;;;;;23.97;51.33;99761.47;7309223;19;128868;-38
2023/06/12 08:26:08;;;;;;;35.63;3.30;;;;;;;23.98;50.05;99763.13;7308543;19;130154;-37
2023/06/12 08:28:35;;;;;;;35.50;3.53;;;;;;;23.88;50.83;99754.47;7311813;19;130807;-38
2023/06/12 08:31:01;;;;;;;58.05;4.68;;;;;;;23.95;51.30;99760.78;7316466;19;129363;-38
2023/06/12 08:33:28;;;;;;;29.23;3.17;;;;;;;23.94;51.10;99767.00;7318614;19;128814;-38
2023/06/12 08:35:53;;;;;;;;;;;;;;;24.04;51.87;99762.53;7316434;19;129105;-38
2023/06/12 08:38:19;;;;;;;35.88;3.67;;;;;;;23.97;51.24;99750.94;7317471;19;129841;-39
2023/06/12 08:40:46;;;;;;;48.70;3.93;;;;;;;23.97;51.81;99756.19;7316499;19;130761;-38
2023/06/12 08:43:12;;;;;;;48.10;3.88;;;;;;;23.95;51.41;99760.78;7316004;19;129093;-39
2023/06/12 08:45:45;;;;;;;31.30;3.63;;;;;;;23.97;51.48;99756.19;7316118;19;129693;-39
2023/06/12 08:48:15;;;;;;;47.25;3.80;;;;;;;23.93;51.26;99754.84;7317369;19;129599;-38
2023/06/12 08:50:42;;;;;;;52.33;4.30;;;;;;;23.86;51.15;99743.31;7316679;19;129065;-38
2023/06/12 08:53:07;;;;;;;;;;;;;;;24.03;51.58;99755.63;7317931;19;129212;-39
2023/06/12 08:55:39;;;;;;;58.00;4.77;;;;;;;23.98;51.02;99763.13;7315544;19;129980;-39
2023/06/12 08:58:05;;;;;;;33.35;3.28;;;;;;;23.95;51.23;99767.81;7316668;19;129506;-39
2023/06/12 09:00:31;;;;;;;116.57;7.43;;;;;;;23.96;51.31;99759.81;7315648;19;129257;-40
2023/06/12 09:02:57;;;;;;;39.07;3.87;;;;;;;23.99;51.41;99763.97;7316203;19;129418;-41
2023/06/12 09:05:37;;;;;;;44.80;3.97;;;;;;;23.89;52.06;99736.91;7315777;19;130304;-40
2023/06/12 09:08:04;;;;;;;35.78;3.60;;;;;;;23.98;52.04;99757.88;7317120;19;129305;-41
2023/06/12 09:10:30;;;;;;;;;;;;;;;24.05;52.03;99758.94;7316925;19;128840;-39
2023/06/12 09:12:56;;;;;;;47.10;3.78;;;;;;;23.99;51.92;99754.28;7316106;19;129225;-39
2023/06/12 09:15:23;;;;;;;26.80;3.00;;;;;;;23.99;51.86;99762.16;7316287;19;129139;-38
2023/06/12 09:17:49;;;;;;;;;;;;;;;24.06;52.06;99755.34;7316144;19;129468;-37
2023/06/12 09:20:29;;;;;;;32.45;3.33;;;;;;;24.02;52.15;99751.34;7317074;19;129731;-40
2023/06/12 09:23:00;;;;;;;51.05;4.65;;;;;;;23.96;51.61;99745.84;7314159;19;129518;-41
2023/06/12 09:25:36;;;;;;;47.35;3.63;;;;;;;23.99;52.11;99750.81;7313157;19;130800;-39
2023/06/12 09:28:03;;;;;;;32.63;3.45;;;;;;;23.95;51.79;99749.44;7316434;19;129339;-39
2023/06/12 09:30:31;;;;;;;44.75;4.22;;;;;;;23.95;51.62;99763.41;7315435;19;129657;-38
2023/06/12 09:32:56;;;;;;;33.08;3.22;;;;;;;23.97;51.56;99764.09;7312985;19;129225;-38
2023/06/12 09:35:22;;;;;;;37.93;3.43;;;;;;;23.96;51.47;99759.81;7314285;19;131009;-40
2023/06/12 09:37:48;;;;;;;40.17;3.78;;;;;;;23.93;51.79;99748.78;7314963;19;129636;-39
2023/06/12 09:40:15;;;;;;;56.55;4.57;;;;;;;23.96;52.44;99754.56;7313597;19;129478;-41
2023/06/12 09:42:41;;;;;;;;;;;;;;;24.04;52.23;99753.81;7312757;19;129636;-42
2023/06/12 09:45:13;;;;;;;271.45;16.48;;;;;;;23.90;52.52;99743.84;7305737;19;130166;-38
2023/06/12 09:47:43;;;;;;;50.05;4.00;;;;;;;23.95;51.82;99752.91;7300419;19;132108;-40
2023/06/12 09:50:10;;;;;;;47.80;3.70;;;;;;;23.95;52.35;99750.28;7315877;19;129540;-41
2023/06/12 09:52:36;;;;;;;28.30;2.80;;;;;;;23.82;52.22;99738.50;7313821;19;129887;-41
2023/06/12 09:55:05;;;;;;;48.37;3.87;;;;;;;23.93;52.51;99751.41;7313527;19;129390;-41
2023/06/12 09:57:35;;;;;;;26.75;2.50;;;;;;;23.92;52.20;99757.63;7315046;19;129529;-39
2023/06/12 10:00:02;;;;;;;37.08;3.45;;;;;;;23.99;52.88;99759.53;7315455;19;128966;-40
2023/06/12 10:02:28;;;;;;;27.23;3.40;;;;;;;24.01;52.77;99757.59;7311109;19;129113;-41
2023/06/12 10:05:02;;;;;;;39.90;3.43;;;;;;;23.94;52.66;99729.41;7314531;19;130767;-41
2023/06/12 10:07:32;;;;;;;43.03;3.67;;;;;;;23.98;51.81;99736.06;7314490;19;129199;-40
2023/06/12 10:09:58;;;;;;;39.70;3.60;;;;;;;24.19;50.93;99742.63;7315946;19;129401;-39
2023/06/12 10:12:25;;;;;;;30.63;2.75;;;;;;;24.23;51.14;99746.59;7313527;19;128886;-40
2023/06/12 10:14:52;;;;;;;16.58;2.60;;;;;;;24.10;50.80;99729.56;7314459;19;129241;-40
2023/06/12 10:17:21;;;;;;;;;;;;;;;24.16;52.44;99755.25;7311666;19;130326;-38
2023/06/12 10:19:49;;;;;;;20.85;2.60;;;;;;;24.15;51.53;99743.91;7315798;19;128982;-40
2023/06/12 10:22:16;;;;;;;28.95;3.05;;;;;;;24.12;52.60;99740.75;7315947;19;129302;-40
2023/06/12 10:24:44;;;;;;;69.60;4.82;;;;;;;24.13;52.05;99743.22;7314708;19;129124;-38
2023/06/12 10:27:11;;;;;;;79.85;5.30;;;;;;;24.16;52.13;99744.75;7317400;19;129221;-41
2023/06/12 10:29:38;;;;;;;113.47;6.63;;;;;;;24.19;52.40;99740.00;7316507;19;129482;-38
2023/06/12 10:32:08;;;;;;;52.20;4.28;;;;;;;24.27;52.50;99740.06;7316087;19;129356;-38
2023/06/12 10:34:36;;;;;;;48.45;3.97;;;;;;;24.31;52.30;99741.38;7315273;19;130484;-39
2023/06/12 10:37:24;;;;;;;109.40;6.80;;;;;;;24.32;52.08;99750.94;7318067;19;129993;-42
2023/06/12 10:40:15;;;;;;;20.90;2.70;;;;;;;24.34;52.88;99732.41;7317279;19;129083;-39
2023/06/12 10:42:51;;;;;;;92.82;6.05;;;;;;;24.33;52.21;99725.47;7311447;19;130314;-38
2023/06/12 10:45:23;;;;;;;96.28;5.97;;;;;;;24.38;52.02;99723.19;7317652;19;130203;-39
2023/06/12 10:48:07;;;;;;;56.38;4.22;;;;;;;24.37;52.69;99721.56;7314744;19;129598;-39
2023/06/12 10:50:35;;;;;;;122.50;8.27;;;;;;;24.35;51.57;99726.16;7311886;19;128908;-41
2023/06/12 10:53:03;;;;;;;35.17;3.25;;;;;;;24.37;52.28;99725.03;7310253;19;129950;-38
2023/06/12 10:55:29;;;;;;;29.60;3.03;;;;;;;24.41;51.88;99723.72;7314712;19;130037;-35
2023/06/12 10:58:03;;;;;;;38.23;3.43;;;;;;;24.51;51.91;99707.84;7312089;19;129194;-39
2023/06/12 11:01:02;;;;;;;123.30;8.30;;;;;;;24.64;51.86;99717.94;7312844;19;130995;-42
2023/06/12 11:03:29;;;;;;;80.43;5.75;;;;;;;24.72;50.87;99716.22;7311813;19;129110;-38
2023/06/12 11:06:00;;;;;;;44.28;3.80;;;;;;;24.77;50.20;99706.06;7314905;19;130002;-41
2023/06/12 11:08:27;;;;;;;26.38;2.97;;;;;;;24.79;50.17;99705.91;7314121;19;130726;-44
2023/06/12 11:10:53;;;;;;;49.00;4.25;;;;;;;24.68;49.80;99698.28;7316868;19;129844;-37
2023/06/12 11:13:24;;;;;;;84.30;6.33;;;;;;;24.74;50.90;99697.66;7314059;19;129913;-32
2023/06/12 11:15:51;;;;;;;40.58;3.72;;;;;;;24.72;50.91;99704.88;7312208;19;129778;-42
2023/06/12 11:18:18;;;;;;;38.15;3.95;;;;;;;24.84;49.76;99687.84;7312210;19;129280;-39
2023/06/12 11:20:49;;;;;;;;;;;;;;;24.95;50.61;99695.44;7312522;19;129244;-36